sensor_id;sensor_type;location;lat;lon;timestamp;P1;durP1;ratioP1;P2;durP2;ratioP2
32613;SDS011;19031;51.400;6.770;2022-09-16T00:01:19;1.00;;;0.25;;
32613;SDS011;19031;51.400;6.770;2022-09-16T00:03:45;0.90;;;0.60;;
32613;SDS011;19031;51.400;6.770;2022-09-16T00:08:50;1.20;;;0.70;;
32613;SDS011;19031;51.400;6.770;2022-09-16T00:11:18;2.00;;;0.50;;
32613;SDS011;19031;51.400;6.770;2022-09-16T00:13:44;2.95;;;0.50;;
32613;SDS011;19031;51.400;6.770;2022-09-16T00:16:11;1.55;;;0.52;;
32613;SDS011;19031;51.400;6.770;2022-09-16T00:18:41;0.82;;;0.30;;
32613;SDS011;19031;51.400;6.770;2022-09-16T00:21:07;3.20;;;0.30;;
32613;SDS011;19031;51.400;6.770;2022-09-16T00:23:34;2.50;;;0.35;;
32613;SDS011;19031;51.400;6.770;2022-09-16T00:26:00;1.52;;;0.45;;
32613;SDS011;19031;51.400;6.770;2022-09-16T00:28:26;0.30;;;0.30;;
32613;SDS011;19031;51.400;6.770;2022-09-16T00:30:51;1.05;;;0.22;;
32613;SDS011;19031;51.400;6.770;2022-09-16T00:33:17;4.30;;;0.50;;
32613;SDS011;19031;51.400;6.770;2022-09-16T00:35:44;1.15;;;0.60;;
32613;SDS011;19031;51.400;6.770;2022-09-16T00:38:10;1.00;;;0.28;;
32613;SDS011;19031;51.400;6.770;2022-09-16T00:40:42;1.75;;;0.20;;
32613;SDS011;19031;51.400;6.770;2022-09-16T00:43:15;0.30;;;0.15;;
32613;SDS011;19031;51.400;6.770;2022-09-16T00:45:43;1.48;;;0.40;;
32613;SDS011;19031;51.400;6.770;2022-09-16T00:48:14;2.95;;;0.50;;
32613;SDS011;19031;51.400;6.770;2022-09-16T00:50:53;1.05;;;0.70;;
32613;SDS011;19031;51.400;6.770;2022-09-16T00:53:24;1.90;;;0.50;;
32613;SDS011;19031;51.400;6.770;2022-09-16T00:55:53;3.00;;;0.73;;
32613;SDS011;19031;51.400;6.770;2022-09-16T01:00:49;3.90;;;0.60;;
32613;SDS011;19031;51.400;6.770;2022-09-16T01:03:15;3.60;;;0.45;;
32613;SDS011;19031;51.400;6.770;2022-09-16T01:05:41;0.73;;;0.30;;
32613;SDS011;19031;51.400;6.770;2022-09-16T01:08:08;2.13;;;0.50;;
32613;SDS011;19031;51.400;6.770;2022-09-16T01:10:34;0.95;;;0.30;;
32613;SDS011;19031;51.400;6.770;2022-09-16T01:13:04;3.65;;;0.90;;
32613;SDS011;19031;51.400;6.770;2022-09-16T01:29:26;2.40;;;0.60;;
32613;SDS011;19031;51.400;6.770;2022-09-16T01:37:46;0.15;;;0.15;;
32613;SDS011;19031;51.400;6.770;2022-09-16T01:45:43;3.40;;;0.55;;
32613;SDS011;19031;51.400;6.770;2022-09-16T01:48:25;2.03;;;0.38;;
32613;SDS011;19031;51.400;6.770;2022-09-16T01:51:05;1.42;;;0.40;;
32613;SDS011;19031;51.400;6.770;2022-09-16T01:56:47;0.93;;;0.28;;
32613;SDS011;19031;51.400;6.770;2022-09-16T01:59:35;0.35;;;0.30;;
32613;SDS011;19031;51.400;6.770;2022-09-16T02:02:09;3.20;;;0.30;;
32613;SDS011;19031;51.400;6.770;2022-09-16T02:04:42;1.10;;;0.40;;
32613;SDS011;19031;51.400;6.770;2022-09-16T02:07:12;1.00;;;0.30;;
32613;SDS011;19031;51.400;6.770;2022-09-16T02:09:42;5.60;;;0.60;;
32613;SDS011;19031;51.400;6.770;2022-09-16T02:12:14;0.70;;;0.40;;
32613;SDS011;19031;51.400;6.770;2022-09-16T02:14:45;1.58;;;0.52;;
32613;SDS011;19031;51.400;6.770;2022-09-16T02:17:17;0.70;;;0.50;;
32613;SDS011;19031;51.400;6.770;2022-09-16T02:19:47;0.52;;;0.20;;
32613;SDS011;19031;51.400;6.770;2022-09-16T02:22:39;2.95;;;0.80;;
32613;SDS011;19031;51.400;6.770;2022-09-16T02:25:11;1.58;;;0.22;;
32613;SDS011;19031;51.400;6.770;2022-09-16T02:27:40;1.67;;;0.52;;
32613;SDS011;19031;51.400;6.770;2022-09-16T02:30:11;0.95;;;0.50;;
32613;SDS011;19031;51.400;6.770;2022-09-16T02:32:41;1.83;;;0.20;;
32613;SDS011;19031;51.400;6.770;2022-09-16T02:35:11;0.88;;;0.40;;
32613;SDS011;19031;51.400;6.770;2022-09-16T02:40:39;1.42;;;0.50;;
32613;SDS011;19031;51.400;6.770;2022-09-16T02:43:08;1.73;;;0.45;;
32613;SDS011;19031;51.400;6.770;2022-09-16T02:54:08;2.97;;;0.50;;
32613;SDS011;19031;51.400;6.770;2022-09-16T02:56:40;2.28;;;0.35;;
32613;SDS011;19031;51.400;6.770;2022-09-16T02:59:07;3.05;;;0.60;;
32613;SDS011;19031;51.400;6.770;2022-09-16T03:01:37;1.42;;;0.30;;
32613;SDS011;19031;51.400;6.770;2022-09-16T03:04:06;0.95;;;0.30;;
32613;SDS011;19031;51.400;6.770;2022-09-16T03:06:33;2.13;;;0.50;;
32613;SDS011;19031;51.400;6.770;2022-09-16T03:09:00;0.90;;;0.57;;
32613;SDS011;19031;51.400;6.770;2022-09-16T03:16:40;3.40;;;0.70;;
32613;SDS011;19031;51.400;6.770;2022-09-16T03:19:45;2.80;;;0.40;;
32613;SDS011;19031;51.400;6.770;2022-09-16T03:22:07;2.17;;;0.30;;
32613;SDS011;19031;51.400;6.770;2022-09-16T03:24:44;1.00;;;0.50;;
32613;SDS011;19031;51.400;6.770;2022-09-16T03:27:23;3.20;;;0.50;;
32613;SDS011;19031;51.400;6.770;2022-09-16T03:29:59;3.10;;;0.75;;
32613;SDS011;19031;51.400;6.770;2022-09-16T03:32:35;1.25;;;0.50;;
32613;SDS011;19031;51.400;6.770;2022-09-16T03:37:42;1.88;;;0.38;;
32613;SDS011;19031;51.400;6.770;2022-09-16T03:40:10;1.25;;;0.40;;
32613;SDS011;19031;51.400;6.770;2022-09-16T03:42:38;4.00;;;0.70;;
32613;SDS011;19031;51.400;6.770;2022-09-16T03:45:06;2.47;;;0.82;;
32613;SDS011;19031;51.400;6.770;2022-09-16T03:47:35;3.63;;;1.02;;
32613;SDS011;19031;51.400;6.770;2022-09-16T03:50:00;7.47;;;0.95;;
32613;SDS011;19031;51.400;6.770;2022-09-16T03:52:27;1.70;;;0.57;;
32613;SDS011;19031;51.400;6.770;2022-09-16T03:54:53;2.47;;;1.00;;
32613;SDS011;19031;51.400;6.770;2022-09-16T03:57:18;1.02;;;0.50;;
32613;SDS011;19031;51.400;6.770;2022-09-16T03:59:44;1.77;;;0.47;;
32613;SDS011;19031;51.400;6.770;2022-09-16T04:02:09;2.15;;;0.40;;
32613;SDS011;19031;51.400;6.770;2022-09-16T04:04:35;2.45;;;0.70;;
32613;SDS011;19031;51.400;6.770;2022-09-16T04:07:00;2.85;;;0.70;;
32613;SDS011;19031;51.400;6.770;2022-09-16T04:09:26;1.90;;;0.50;;
32613;SDS011;19031;51.400;6.770;2022-09-16T04:11:52;3.17;;;0.77;;
32613;SDS011;19031;51.400;6.770;2022-09-16T04:14:17;0.98;;;0.50;;
32613;SDS011;19031;51.400;6.770;2022-09-16T04:16:43;2.65;;;0.55;;
32613;SDS011;19031;51.400;6.770;2022-09-16T04:19:09;4.75;;;0.70;;
32613;SDS011;19031;51.400;6.770;2022-09-16T04:21:37;7.68;;;0.98;;
32613;SDS011;19031;51.400;6.770;2022-09-16T04:24:03;8.90;;;1.00;;
32613;SDS011;19031;51.400;6.770;2022-09-16T04:26:29;4.50;;;0.65;;
32613;SDS011;19031;51.400;6.770;2022-09-16T04:28:55;0.73;;;0.43;;
32613;SDS011;19031;51.400;6.770;2022-09-16T04:31:20;4.45;;;0.50;;
32613;SDS011;19031;51.400;6.770;2022-09-16T04:33:46;1.77;;;0.57;;
32613;SDS011;19031;51.400;6.770;2022-09-16T04:36:13;3.17;;;0.60;;
32613;SDS011;19031;51.400;6.770;2022-09-16T04:38:41;1.75;;;0.57;;
32613;SDS011;19031;51.400;6.770;2022-09-16T04:41:12;1.83;;;0.43;;
32613;SDS011;19031;51.400;6.770;2022-09-16T04:43:41;1.75;;;0.40;;
32613;SDS011;19031;51.400;6.770;2022-09-16T04:46:07;2.67;;;0.50;;
32613;SDS011;19031;51.400;6.770;2022-09-16T04:48:33;1.80;;;0.40;;
32613;SDS011;19031;51.400;6.770;2022-09-16T04:51:06;1.80;;;0.85;;
32613;SDS011;19031;51.400;6.770;2022-09-16T04:53:34;2.45;;;0.70;;
32613;SDS011;19031;51.400;6.770;2022-09-16T04:58:33;3.72;;;1.00;;
32613;SDS011;19031;51.400;6.770;2022-09-16T05:01:02;3.03;;;0.82;;
32613;SDS011;19031;51.400;6.770;2022-09-16T05:03:29;1.40;;;0.68;;
32613;SDS011;19031;51.400;6.770;2022-09-16T05:06:02;3.83;;;0.80;;
32613;SDS011;19031;51.400;6.770;2022-09-16T05:08:36;2.55;;;0.68;;
32613;SDS011;19031;51.400;6.770;2022-09-16T05:11:06;2.35;;;0.93;;
32613;SDS011;19031;51.400;6.770;2022-09-16T05:13:34;1.92;;;1.17;;
32613;SDS011;19031;51.400;6.770;2022-09-16T05:16:07;4.88;;;1.15;;
32613;SDS011;19031;51.400;6.770;2022-09-16T05:18:38;1.42;;;1.00;;
32613;SDS011;19031;51.400;6.770;2022-09-16T05:21:06;4.07;;;0.80;;
32613;SDS011;19031;51.400;6.770;2022-09-16T05:23:34;5.97;;;1.00;;
32613;SDS011;19031;51.400;6.770;2022-09-16T05:26:05;4.75;;;1.15;;
32613;SDS011;19031;51.400;6.770;2022-09-16T05:28:33;5.20;;;1.40;;
32613;SDS011;19031;51.400;6.770;2022-09-16T05:33:37;2.47;;;0.80;;
32613;SDS011;19031;51.400;6.770;2022-09-16T05:36:08;5.00;;;1.30;;
32613;SDS011;19031;51.400;6.770;2022-09-16T05:38:36;3.00;;;1.15;;
32613;SDS011;19031;51.400;6.770;2022-09-16T05:41:02;6.85;;;1.52;;
32613;SDS011;19031;51.400;6.770;2022-09-16T05:43:29;2.13;;;0.90;;
32613;SDS011;19031;51.400;6.770;2022-09-16T05:45:55;6.00;;;1.63;;
32613;SDS011;19031;51.400;6.770;2022-09-16T05:48:21;4.80;;;1.35;;
32613;SDS011;19031;51.400;6.770;2022-09-16T05:50:51;2.75;;;1.10;;
32613;SDS011;19031;51.400;6.770;2022-09-16T05:53:17;2.38;;;1.25;;
32613;SDS011;19031;51.400;6.770;2022-09-16T05:55:45;3.30;;;1.13;;
32613;SDS011;19031;51.400;6.770;2022-09-16T05:58:22;1.13;;;0.70;;
32613;SDS011;19031;51.400;6.770;2022-09-16T06:00:48;4.97;;;1.10;;
32613;SDS011;19031;51.400;6.770;2022-09-16T06:03:14;4.38;;;1.08;;
32613;SDS011;19031;51.400;6.770;2022-09-16T06:05:39;3.50;;;0.95;;
32613;SDS011;19031;51.400;6.770;2022-09-16T06:08:05;1.45;;;1.17;;
32613;SDS011;19031;51.400;6.770;2022-09-16T06:10:30;3.95;;;1.20;;
32613;SDS011;19031;51.400;6.770;2022-09-16T06:13:00;4.65;;;1.10;;
32613;SDS011;19031;51.400;6.770;2022-09-16T06:15:26;2.53;;;0.75;;
32613;SDS011;19031;51.400;6.770;2022-09-16T06:17:52;6.25;;;1.27;;
32613;SDS011;19031;51.400;6.770;2022-09-16T06:20:18;2.80;;;1.08;;
32613;SDS011;19031;51.400;6.770;2022-09-16T06:22:44;1.48;;;1.00;;
32613;SDS011;19031;51.400;6.770;2022-09-16T06:25:10;1.08;;;0.80;;
32613;SDS011;19031;51.400;6.770;2022-09-16T06:27:36;1.10;;;0.63;;
32613;SDS011;19031;51.400;6.770;2022-09-16T06:30:01;2.03;;;0.77;;
32613;SDS011;19031;51.400;6.770;2022-09-16T06:32:29;3.67;;;1.05;;
32613;SDS011;19031;51.400;6.770;2022-09-16T06:34:55;4.28;;;0.90;;
32613;SDS011;19031;51.400;6.770;2022-09-16T06:37:21;1.17;;;0.50;;
32613;SDS011;19031;51.400;6.770;2022-09-16T06:39:46;3.08;;;0.77;;
32613;SDS011;19031;51.400;6.770;2022-09-16T06:42:12;5.78;;;1.08;;
32613;SDS011;19031;51.400;6.770;2022-09-16T06:44:37;5.53;;;0.98;;
32613;SDS011;19031;51.400;6.770;2022-09-16T06:47:03;2.17;;;0.85;;
32613;SDS011;19031;51.400;6.770;2022-09-16T06:49:28;3.00;;;1.00;;
32613;SDS011;19031;51.400;6.770;2022-09-16T06:51:55;2.25;;;0.80;;
32613;SDS011;19031;51.400;6.770;2022-09-16T06:54:20;3.03;;;0.80;;
32613;SDS011;19031;51.400;6.770;2022-09-16T06:56:46;1.15;;;0.77;;
32613;SDS011;19031;51.400;6.770;2022-09-16T06:59:11;2.22;;;0.98;;
32613;SDS011;19031;51.400;6.770;2022-09-16T07:01:38;2.38;;;0.75;;
32613;SDS011;19031;51.400;6.770;2022-09-16T07:04:05;1.13;;;0.60;;
32613;SDS011;19031;51.400;6.770;2022-09-16T07:06:37;2.35;;;0.88;;
32613;SDS011;19031;51.400;6.770;2022-09-16T07:09:03;4.43;;;0.80;;
32613;SDS011;19031;51.400;6.770;2022-09-16T07:11:30;1.98;;;0.82;;
32613;SDS011;19031;51.400;6.770;2022-09-16T07:13:57;5.05;;;0.93;;
32613;SDS011;19031;51.400;6.770;2022-09-16T07:16:24;1.88;;;0.82;;
32613;SDS011;19031;51.400;6.770;2022-09-16T07:18:54;2.22;;;0.65;;
32613;SDS011;19031;51.400;6.770;2022-09-16T07:21:22;3.05;;;0.90;;
32613;SDS011;19031;51.400;6.770;2022-09-16T07:23:49;1.40;;;0.73;;
32613;SDS011;19031;51.400;6.770;2022-09-16T07:26:19;1.55;;;0.77;;
32613;SDS011;19031;51.400;6.770;2022-09-16T07:28:47;1.17;;;0.50;;
32613;SDS011;19031;51.400;6.770;2022-09-16T07:31:21;3.90;;;0.68;;
32613;SDS011;19031;51.400;6.770;2022-09-16T07:33:49;3.25;;;0.60;;
32613;SDS011;19031;51.400;6.770;2022-09-16T07:36:18;2.85;;;0.73;;
32613;SDS011;19031;51.400;6.770;2022-09-16T07:38:45;1.27;;;0.65;;
32613;SDS011;19031;51.400;6.770;2022-09-16T07:41:15;0.85;;;0.60;;
32613;SDS011;19031;51.400;6.770;2022-09-16T07:43:43;1.15;;;0.63;;
32613;SDS011;19031;51.400;6.770;2022-09-16T07:46:10;2.83;;;0.80;;
32613;SDS011;19031;51.400;6.770;2022-09-16T07:48:36;1.92;;;1.13;;
32613;SDS011;19031;51.400;6.770;2022-09-16T07:51:03;1.10;;;0.57;;
32613;SDS011;19031;51.400;6.770;2022-09-16T07:53:31;3.22;;;0.60;;
32613;SDS011;19031;51.400;6.770;2022-09-16T07:56:01;1.52;;;0.88;;
32613;SDS011;19031;51.400;6.770;2022-09-16T07:58:28;1.42;;;0.93;;
32613;SDS011;19031;51.400;6.770;2022-09-16T08:00:54;1.80;;;0.57;;
32613;SDS011;19031;51.400;6.770;2022-09-16T08:03:19;2.05;;;0.70;;
32613;SDS011;19031;51.400;6.770;2022-09-16T08:05:45;4.75;;;1.17;;
32613;SDS011;19031;51.400;6.770;2022-09-16T08:08:11;2.10;;;0.73;;
32613;SDS011;19031;51.400;6.770;2022-09-16T08:10:36;2.78;;;0.60;;
32613;SDS011;19031;51.400;6.770;2022-09-16T08:13:03;3.35;;;1.00;;
32613;SDS011;19031;51.400;6.770;2022-09-16T08:15:30;1.55;;;0.32;;
32613;SDS011;19031;51.400;6.770;2022-09-16T08:17:55;2.17;;;0.60;;
32613;SDS011;19031;51.400;6.770;2022-09-16T08:20:21;0.90;;;0.40;;
32613;SDS011;19031;51.400;6.770;2022-09-16T08:22:48;4.47;;;0.40;;
32613;SDS011;19031;51.400;6.770;2022-09-16T08:25:13;1.65;;;0.40;;
32613;SDS011;19031;51.400;6.770;2022-09-16T08:27:39;1.38;;;0.60;;
32613;SDS011;19031;51.400;6.770;2022-09-16T08:30:05;2.80;;;0.50;;
32613;SDS011;19031;51.400;6.770;2022-09-16T08:32:31;2.15;;;0.30;;
32613;SDS011;19031;51.400;6.770;2022-09-16T08:34:56;2.55;;;0.55;;
32613;SDS011;19031;51.400;6.770;2022-09-16T08:37:22;6.32;;;0.75;;
32613;SDS011;19031;51.400;6.770;2022-09-16T08:39:48;2.03;;;0.47;;
32613;SDS011;19031;51.400;6.770;2022-09-16T08:50:33;2.70;;;0.60;;
32613;SDS011;19031;51.400;6.770;2022-09-16T08:53:03;0.63;;;0.22;;
32613;SDS011;19031;51.400;6.770;2022-09-16T08:55:43;0.30;;;0.30;;
32613;SDS011;19031;51.400;6.770;2022-09-16T08:58:21;4.47;;;0.50;;
32613;SDS011;19031;51.400;6.770;2022-09-16T09:01:09;2.80;;;0.52;;
32613;SDS011;19031;51.400;6.770;2022-09-16T09:03:40;1.60;;;0.38;;
32613;SDS011;19031;51.400;6.770;2022-09-16T09:06:17;0.47;;;0.20;;
32613;SDS011;19031;51.400;6.770;2022-09-16T09:13:49;1.02;;;0.40;;
32613;SDS011;19031;51.400;6.770;2022-09-16T09:27:59;1.25;;;0.45;;
32613;SDS011;19031;51.400;6.770;2022-09-16T09:31:36;3.60;;;0.30;;
32613;SDS011;19031;51.400;6.770;2022-09-16T09:41:42;1.45;;;0.20;;
32613;SDS011;19031;51.400;6.770;2022-09-16T09:44:23;5.35;;;0.30;;
32613;SDS011;19031;51.400;6.770;2022-09-16T09:46:54;5.22;;;0.25;;
32613;SDS011;19031;51.400;6.770;2022-09-16T09:54:30;2.90;;;0.30;;
32613;SDS011;19031;51.400;6.770;2022-09-16T10:01:52;2.58;;;0.20;;
32613;SDS011;19031;51.400;6.770;2022-09-16T10:04:19;4.30;;;0.40;;
32613;SDS011;19031;51.400;6.770;2022-09-16T10:06:44;0.40;;;0.10;;
32613;SDS011;19031;51.400;6.770;2022-09-16T10:09:12;0.63;;;0.20;;
32613;SDS011;19031;51.400;6.770;2022-09-16T10:11:49;1.70;;;0.20;;
32613;SDS011;19031;51.400;6.770;2022-09-16T10:16:55;3.50;;;0.20;;
32613;SDS011;19031;51.400;6.770;2022-09-16T10:19:25;3.58;;;0.60;;
32613;SDS011;19031;51.400;6.770;2022-09-16T10:26:59;0.98;;;0.22;;
32613;SDS011;19031;51.400;6.770;2022-09-16T10:29:26;1.13;;;0.10;;
32613;SDS011;19031;51.400;6.770;2022-09-16T10:31:52;1.55;;;0.20;;
32613;SDS011;19031;51.400;6.770;2022-09-16T10:34:27;1.85;;;0.20;;
32613;SDS011;19031;51.400;6.770;2022-09-16T10:37:00;1.08;;;0.20;;
32613;SDS011;19031;51.400;6.770;2022-09-16T10:39:30;3.77;;;0.27;;
32613;SDS011;19031;51.400;6.770;2022-09-16T10:41:56;0.38;;;0.20;;
32613;SDS011;19031;51.400;6.770;2022-09-16T10:44:26;1.85;;;0.30;;
32613;SDS011;19031;51.400;6.770;2022-09-16T10:46:55;1.83;;;0.20;;
32613;SDS011;19031;51.400;6.770;2022-09-16T10:49:24;2.85;;;0.47;;
32613;SDS011;19031;51.400;6.770;2022-09-16T10:52:06;1.27;;;0.10;;
32613;SDS011;19031;51.400;6.770;2022-09-16T10:54:33;0.55;;;0.20;;
32613;SDS011;19031;51.400;6.770;2022-09-16T10:56:58;0.98;;;0.28;;
32613;SDS011;19031;51.400;6.770;2022-09-16T10:59:24;1.38;;;0.30;;
32613;SDS011;19031;51.400;6.770;2022-09-16T11:07:41;3.78;;;0.35;;
32613;SDS011;19031;51.400;6.770;2022-09-16T11:21:23;1.50;;;0.25;;
32613;SDS011;19031;51.400;6.770;2022-09-16T11:24:10;1.77;;;0.25;;
32613;SDS011;19031;51.400;6.770;2022-09-16T11:26:51;0.68;;;0.20;;
32613;SDS011;19031;51.400;6.770;2022-09-16T11:37:50;0.75;;;0.25;;
32613;SDS011;19031;51.400;6.770;2022-09-16T11:40:46;1.85;;;0.15;;
32613;SDS011;19031;51.400;6.770;2022-09-16T11:48:46;1.20;;;0.30;;
32613;SDS011;19031;51.400;6.770;2022-09-16T11:51:29;0.17;;;0.10;;
32613;SDS011;19031;51.400;6.770;2022-09-16T11:54:23;2.13;;;0.20;;
32613;SDS011;19031;51.400;6.770;2022-09-16T11:56:55;2.97;;;0.43;;
32613;SDS011;19031;51.400;6.770;2022-09-16T11:59:31;1.25;;;0.13;;
32613;SDS011;19031;51.400;6.770;2022-09-16T12:04:39;3.40;;;0.40;;
32613;SDS011;19031;51.400;6.770;2022-09-16T12:10:16;0.68;;;0.28;;
32613;SDS011;19031;51.400;6.770;2022-09-16T12:16:00;1.75;;;0.10;;
32613;SDS011;19031;51.400;6.770;2022-09-16T12:18:46;0.50;;;0.20;;
32613;SDS011;19031;51.400;6.770;2022-09-16T12:21:36;0.65;;;0.15;;
32613;SDS011;19031;51.400;6.770;2022-09-16T12:30:18;1.27;;;0.45;;
32613;SDS011;19031;51.400;6.770;2022-09-16T12:32:58;0.35;;;0.10;;
32613;SDS011;19031;51.400;6.770;2022-09-16T12:38:29;1.33;;;0.20;;
32613;SDS011;19031;51.400;6.770;2022-09-16T12:52:02;1.08;;;0.30;;
32613;SDS011;19031;51.400;6.770;2022-09-16T12:54:54;2.13;;;0.20;;
32613;SDS011;19031;51.400;6.770;2022-09-16T13:00:21;2.58;;;0.30;;
32613;SDS011;19031;51.400;6.770;2022-09-16T13:02:53;0.80;;;0.10;;
32613;SDS011;19031;51.400;6.770;2022-09-16T13:05:27;0.90;;;0.20;;
32613;SDS011;19031;51.400;6.770;2022-09-16T13:07:57;0.32;;;0.13;;
32613;SDS011;19031;51.400;6.770;2022-09-16T13:10:35;0.45;;;0.10;;
32613;SDS011;19031;51.400;6.770;2022-09-16T13:13:02;0.10;;;0.10;;
32613;SDS011;19031;51.400;6.770;2022-09-16T13:15:30;1.08;;;0.38;;
32613;SDS011;19031;51.400;6.770;2022-09-16T13:20:40;2.15;;;0.17;;
32613;SDS011;19031;51.400;6.770;2022-09-16T13:23:23;0.88;;;0.38;;
32613;SDS011;19031;51.400;6.770;2022-09-16T13:26:08;1.27;;;0.30;;
32613;SDS011;19031;51.400;6.770;2022-09-16T13:28:44;1.98;;;0.40;;
32613;SDS011;19031;51.400;6.770;2022-09-16T13:33:47;0.10;;;0.08;;
32613;SDS011;19031;51.400;6.770;2022-09-16T13:38:52;0.80;;;0.20;;
32613;SDS011;19031;51.400;6.770;2022-09-16T13:44:02;5.65;;;0.70;;
32613;SDS011;19031;51.400;6.770;2022-09-16T13:46:49;0.50;;;0.30;;
32613;SDS011;19031;51.400;6.770;2022-09-16T13:49:16;1.08;;;0.40;;
32613;SDS011;19031;51.400;6.770;2022-09-16T13:51:45;0.32;;;0.20;;
32613;SDS011;19031;51.400;6.770;2022-09-16T13:54:24;2.22;;;0.50;;
32613;SDS011;19031;51.400;6.770;2022-09-16T13:57:01;2.75;;;0.20;;
32613;SDS011;19031;51.400;6.770;2022-09-16T14:13:02;4.15;;;0.30;;
32613;SDS011;19031;51.400;6.770;2022-09-16T14:15:39;0.13;;;0.13;;
32613;SDS011;19031;51.400;6.770;2022-09-16T14:18:08;1.13;;;0.17;;
32613;SDS011;19031;51.400;6.770;2022-09-16T14:20:36;0.88;;;0.15;;
32613;SDS011;19031;51.400;6.770;2022-09-16T14:23:04;0.30;;;0.10;;
32613;SDS011;19031;51.400;6.770;2022-09-16T14:25:40;1.50;;;0.35;;
32613;SDS011;19031;51.400;6.770;2022-09-16T14:28:14;0.55;;;0.10;;
32613;SDS011;19031;51.400;6.770;2022-09-16T14:30:44;0.45;;;0.10;;
32613;SDS011;19031;51.400;6.770;2022-09-16T14:33:20;0.75;;;0.20;;
32613;SDS011;19031;51.400;6.770;2022-09-16T14:35:48;0.70;;;0.10;;
32613;SDS011;19031;51.400;6.770;2022-09-16T14:38:17;2.78;;;0.60;;
32613;SDS011;19031;51.400;6.770;2022-09-16T14:40:45;3.28;;;0.25;;
32613;SDS011;19031;51.400;6.770;2022-09-16T14:43:13;0.57;;;0.10;;
32613;SDS011;19031;51.400;6.770;2022-09-16T14:45:44;1.60;;;0.30;;
32613;SDS011;19031;51.400;6.770;2022-09-16T14:48:15;2.58;;;0.13;;
32613;SDS011;19031;51.400;6.770;2022-09-16T14:50:43;1.95;;;0.10;;
32613;SDS011;19031;51.400;6.770;2022-09-16T14:53:24;2.33;;;0.40;;
32613;SDS011;19031;51.400;6.770;2022-09-16T14:55:50;0.98;;;0.10;;
32613;SDS011;19031;51.400;6.770;2022-09-16T14:58:16;2.17;;;0.40;;
32613;SDS011;19031;51.400;6.770;2022-09-16T15:00:48;0.50;;;0.30;;
32613;SDS011;19031;51.400;6.770;2022-09-16T15:06:17;0.43;;;0.10;;
32613;SDS011;19031;51.400;6.770;2022-09-16T15:08:48;2.38;;;0.20;;
32613;SDS011;19031;51.400;6.770;2022-09-16T15:11:44;3.00;;;0.30;;
32613;SDS011;19031;51.400;6.770;2022-09-16T15:14:15;0.30;;;0.20;;
32613;SDS011;19031;51.400;6.770;2022-09-16T15:16:46;7.60;;;0.45;;
32613;SDS011;19031;51.400;6.770;2022-09-16T15:19:18;1.77;;;0.30;;
32613;SDS011;19031;51.400;6.770;2022-09-16T15:21:46;2.47;;;0.40;;
32613;SDS011;19031;51.400;6.770;2022-09-16T15:24:22;3.10;;;0.30;;
32613;SDS011;19031;51.400;6.770;2022-09-16T15:26:53;1.30;;;0.45;;
32613;SDS011;19031;51.400;6.770;2022-09-16T15:31:48;2.65;;;0.40;;
32613;SDS011;19031;51.400;6.770;2022-09-16T15:36:50;1.30;;;0.30;;
32613;SDS011;19031;51.400;6.770;2022-09-16T15:39:27;1.83;;;0.20;;
32613;SDS011;19031;51.400;6.770;2022-09-16T15:42:15;5.32;;;0.50;;
32613;SDS011;19031;51.400;6.770;2022-09-16T15:44:57;0.50;;;0.20;;
32613;SDS011;19031;51.400;6.770;2022-09-16T15:47:31;1.63;;;0.20;;
32613;SDS011;19031;51.400;6.770;2022-09-16T15:50:07;1.23;;;0.40;;
32613;SDS011;19031;51.400;6.770;2022-09-16T15:55:24;2.33;;;0.65;;
32613;SDS011;19031;51.400;6.770;2022-09-16T15:57:50;0.55;;;0.32;;
32613;SDS011;19031;51.400;6.770;2022-09-16T16:00:24;1.67;;;0.40;;
32613;SDS011;19031;51.400;6.770;2022-09-16T16:02:51;1.95;;;1.27;;
32613;SDS011;19031;51.400;6.770;2022-09-16T16:07:52;3.20;;;0.60;;
32613;SDS011;19031;51.400;6.770;2022-09-16T16:10:20;6.28;;;0.47;;
32613;SDS011;19031;51.400;6.770;2022-09-16T16:12:48;1.20;;;0.38;;
32613;SDS011;19031;51.400;6.770;2022-09-16T16:15:16;1.45;;;0.40;;
32613;SDS011;19031;51.400;6.770;2022-09-16T16:17:45;4.53;;;0.47;;
32613;SDS011;19031;51.400;6.770;2022-09-16T16:20:12;8.35;;;0.75;;
32613;SDS011;19031;51.400;6.770;2022-09-16T16:22:39;0.15;;;0.15;;
32613;SDS011;19031;51.400;6.770;2022-09-16T16:25:05;1.45;;;0.47;;
32613;SDS011;19031;51.400;6.770;2022-09-16T16:27:32;0.98;;;0.35;;
32613;SDS011;19031;51.400;6.770;2022-09-16T16:29:58;1.52;;;0.20;;
32613;SDS011;19031;51.400;6.770;2022-09-16T16:32:23;4.18;;;0.38;;
32613;SDS011;19031;51.400;6.770;2022-09-16T16:34:49;1.27;;;0.30;;
32613;SDS011;19031;51.400;6.770;2022-09-16T16:37:16;2.10;;;0.30;;
32613;SDS011;19031;51.400;6.770;2022-09-16T16:39:43;2.03;;;0.32;;
32613;SDS011;19031;51.400;6.770;2022-09-16T16:42:12;1.85;;;0.60;;
32613;SDS011;19031;51.400;6.770;2022-09-16T16:44:39;0.28;;;0.22;;
32613;SDS011;19031;51.400;6.770;2022-09-16T16:47:05;1.48;;;0.50;;
32613;SDS011;19031;51.400;6.770;2022-09-16T16:49:32;1.98;;;0.20;;
32613;SDS011;19031;51.400;6.770;2022-09-16T16:51:58;2.75;;;0.38;;
32613;SDS011;19031;51.400;6.770;2022-09-16T16:54:25;3.90;;;0.40;;
32613;SDS011;19031;51.400;6.770;2022-09-16T16:56:51;1.80;;;0.50;;
32613;SDS011;19031;51.400;6.770;2022-09-16T16:59:18;1.45;;;0.40;;
32613;SDS011;19031;51.400;6.770;2022-09-16T17:01:44;0.63;;;0.30;;
32613;SDS011;19031;51.400;6.770;2022-09-16T17:04:11;1.67;;;0.52;;
32613;SDS011;19031;51.400;6.770;2022-09-16T17:06:37;1.08;;;0.30;;
32613;SDS011;19031;51.400;6.770;2022-09-16T17:09:04;0.75;;;0.20;;
32613;SDS011;19031;51.400;6.770;2022-09-16T17:11:31;2.10;;;0.38;;
32613;SDS011;19031;51.400;6.770;2022-09-16T17:13:58;3.85;;;0.43;;
32613;SDS011;19031;51.400;6.770;2022-09-16T17:16:26;3.13;;;0.25;;
32613;SDS011;19031;51.400;6.770;2022-09-16T17:18:53;2.55;;;0.28;;
32613;SDS011;19031;51.400;6.770;2022-09-16T17:21:20;2.15;;;0.82;;
32613;SDS011;19031;51.400;6.770;2022-09-16T17:23:48;3.88;;;0.40;;
32613;SDS011;19031;51.400;6.770;2022-09-16T17:26:14;1.98;;;0.32;;
32613;SDS011;19031;51.400;6.770;2022-09-16T17:28:42;2.30;;;0.65;;
32613;SDS011;19031;51.400;6.770;2022-09-16T17:31:09;3.40;;;0.28;;
32613;SDS011;19031;51.400;6.770;2022-09-16T17:33:37;3.15;;;1.52;;
32613;SDS011;19031;51.400;6.770;2022-09-16T17:36:04;5.40;;;1.52;;
32613;SDS011;19031;51.400;6.770;2022-09-16T17:38:31;3.97;;;1.17;;
32613;SDS011;19031;51.400;6.770;2022-09-16T17:41:01;1.27;;;0.43;;
32613;SDS011;19031;51.400;6.770;2022-09-16T17:43:35;7.55;;;0.82;;
32613;SDS011;19031;51.400;6.770;2022-09-16T17:46:03;3.67;;;0.38;;
32613;SDS011;19031;51.400;6.770;2022-09-16T17:48:30;2.63;;;0.85;;
32613;SDS011;19031;51.400;6.770;2022-09-16T17:50:56;12.30;;;1.20;;
32613;SDS011;19031;51.400;6.770;2022-09-16T17:53:22;16.75;;;2.08;;
32613;SDS011;19031;51.400;6.770;2022-09-16T17:55:48;1.02;;;0.70;;
32613;SDS011;19031;51.400;6.770;2022-09-16T17:58:15;4.47;;;1.38;;
32613;SDS011;19031;51.400;6.770;2022-09-16T18:00:41;3.67;;;0.80;;
32613;SDS011;19031;51.400;6.770;2022-09-16T18:03:08;1.15;;;0.43;;
32613;SDS011;19031;51.400;6.770;2022-09-16T18:05:35;3.25;;;0.70;;
32613;SDS011;19031;51.400;6.770;2022-09-16T18:08:01;2.53;;;0.88;;
32613;SDS011;19031;51.400;6.770;2022-09-16T18:10:28;1.92;;;0.55;;
32613;SDS011;19031;51.400;6.770;2022-09-16T18:12:54;1.45;;;0.55;;
32613;SDS011;19031;51.400;6.770;2022-09-16T18:15:22;9.65;;;1.05;;
32613;SDS011;19031;51.400;6.770;2022-09-16T18:17:48;10.88;;;2.17;;
32613;SDS011;19031;51.400;6.770;2022-09-16T18:20:14;4.97;;;0.90;;
32613;SDS011;19031;51.400;6.770;2022-09-16T18:22:41;5.78;;;0.60;;
32613;SDS011;19031;51.400;6.770;2022-09-16T18:25:06;2.30;;;0.52;;
32613;SDS011;19031;51.400;6.770;2022-09-16T18:27:33;3.45;;;1.08;;
32613;SDS011;19031;51.400;6.770;2022-09-16T18:29:58;2.90;;;0.40;;
32613;SDS011;19031;51.400;6.770;2022-09-16T18:32:24;3.13;;;0.55;;